»·PEaware :: N838JH KYKM-KOTH

N838JH :: KYKM-KOTH

FLIGHT INFORMATION

Flight Status: Arrived
Operator: Privately registered:
United States
More flights under this callsign
Pilot: Skye D. (10623)
Aircraft: BEECH AIRCRAFT SUPER KING AIR COMMUTER
(BE20)
More flights by this aircraft type
Origin: KYKM Yakima Air Term/Mcallister
United States
Destination: KOTH North Bend Mun
United States
More flights between these airports :: More routes between these airports
Route: GROMO4 GUBSE V25 LTJ J143 EUG V121 OTH
File this flight plan on PilotEdge
Remarks:
Altitude:
(Current/Filed)
26,000ft
Speed:
(Current/Filed)
270kts
Departed: 01-Mar-18 10:15 AM
Arrived: 01-Mar-18 12:14 PM
Distance/Time
Traveled:
246nm/1:59
Distance/Time
To Go:
Arrived

Flight Plot

Page will automatically refresh every two minutes.

Flight plan parsing failed; only flown route is shown


Map Options




Map Legend


Flown Route
Filed Route
Departure Airport
Arrival Airport
Navaid (VOR, NDB)
Fix

Horizontal Profiles

Position Reports

Time Latitude Longitude Heading Altitude Ground
Speed
01-Mar-18 09:52 46.570579 -120.542720 91 1098ft 0kts
01-Mar-18 09:53 46.570579 -120.542720 91 1098ft 0kts
01-Mar-18 09:54 46.570579 -120.542720 91 1098ft 0kts
01-Mar-18 09:55 46.570579 -120.542720 91 1098ft 0kts
01-Mar-18 09:56 46.570579 -120.542720 91 1098ft 0kts
01-Mar-18 09:57 46.570579 -120.542720 91 1098ft 0kts
01-Mar-18 09:58 46.570579 -120.542720 91 1098ft 0kts
01-Mar-18 09:59 46.570579 -120.542720 91 1098ft 0kts
01-Mar-18 10:00 46.570579 -120.542720 91 1098ft 0kts
01-Mar-18 10:01 46.570579 -120.542720 91 1098ft 0kts
01-Mar-18 10:02 46.570579 -120.542720 91 1098ft 0kts
01-Mar-18 10:03 46.570579 -120.542720 91 1098ft 0kts
01-Mar-18 10:04 46.570579 -120.542720 91 1098ft 0kts
01-Mar-18 10:05 46.570579 -120.542720 91 1098ft 0kts
01-Mar-18 10:06 46.570579 -120.542720 91 1098ft 0kts
01-Mar-18 10:07 46.570579 -120.542720 91 1098ft 0kts
01-Mar-18 10:08 46.570579 -120.542720 91 1098ft 0kts
01-Mar-18 10:09 46.570579 -120.542720 91 1098ft 0kts
01-Mar-18 10:10 46.570579 -120.542720 91 1098ft 0kts
01-Mar-18 10:11 46.570579 -120.542720 91 1098ft 0kts
01-Mar-18 10:12 46.570579 -120.542720 91 1099ft 0kts
01-Mar-18 10:13 46.570579 -120.542720 91 1099ft 0kts
01-Mar-18 10:14 46.570579 -120.542720 91 1099ft 0kts
01-Mar-18 10:15 46.570095 -120.542563 181 1099ft 9kts
01-Mar-18 10:16 46.569387 -120.542202 112 1098ft 17kts
01-Mar-18 10:17 46.567754 -120.535802 110 1099ft 16kts
01-Mar-18 10:18 46.566388 -120.531508 178 1098ft 0kts
01-Mar-18 10:19 46.566388 -120.531508 178 1098ft 0kts
01-Mar-18 10:20 46.566388 -120.531508 178 1098ft 0kts
01-Mar-18 10:21 46.566388 -120.531508 178 1098ft 0kts
01-Mar-18 10:22 46.565780 -120.532546 290 1099ft 42kts
01-Mar-18 10:23 46.574435 -120.564434 281 1960ft 118kts
01-Mar-18 10:24 46.572257 -120.607417 263 3074ft 147kts
01-Mar-18 10:25 46.558239 -120.652486 205 4533ft 161kts
01-Mar-18 10:26 46.522290 -120.644140 172 6274ft 150kts
01-Mar-18 10:27 46.487810 -120.624295 150 7748ft 165kts
01-Mar-18 10:28 46.453787 -120.611692 207 8904ft 166kts
01-Mar-18 10:29 46.423495 -120.634533 204 10115ft 165kts
01-Mar-18 10:30 46.393168 -120.655578 203 11803ft 144kts
01-Mar-18 10:31 46.366675 -120.673486 202 13380ft 136kts
01-Mar-18 10:32 46.339643 -120.691566 202 14872ft 133kts
01-Mar-18 10:33 46.313467 -120.708997 201 16226ft 131kts
01-Mar-18 10:34 46.289024 -120.725221 201 17471ft 129kts
01-Mar-18 10:35 46.266313 -120.740266 200 18600ft 128kts
01-Mar-18 10:36 46.242285 -120.756139 200 19618ft 132kts
01-Mar-18 10:37 46.217860 -120.772272 200 20670ft 128kts
01-Mar-18 10:38 46.191610 -120.789518 200 21639ft 133kts
01-Mar-18 10:39 46.164722 -120.807187 200 22570ft 136kts
01-Mar-18 10:40 46.137699 -120.824933 200 23373ft 138kts
01-Mar-18 10:41 46.111365 -120.842209 200 24078ft 140kts
01-Mar-18 10:42 46.084275 -120.859966 200 24725ft 142kts
01-Mar-18 10:43 46.056442 -120.878202 200 25315ft 144kts
01-Mar-18 10:44 46.028217 -120.896662 200 25698ft 153kts
01-Mar-18 10:45 45.995382 -120.918077 200 25702ft 172kts
01-Mar-18 10:46 45.960774 -120.940698 201 25700ft 184kts
01-Mar-18 10:47 45.924548 -120.964360 201 25698ft 191kts
01-Mar-18 10:48 45.889063 -120.987498 201 25712ft 195kts
01-Mar-18 10:49 45.852161 -121.011516 201 25714ft 199kts
01-Mar-18 10:50 45.817164 -121.034263 201 25713ft 202kts
01-Mar-18 10:51 45.782060 -121.057042 201 25712ft 203kts
01-Mar-18 10:52 45.746483 -121.080104 201 25712ft 203kts
01-Mar-18 10:53 45.710542 -121.106236 215 25711ft 208kts
01-Mar-18 10:54 45.679460 -121.149215 216 25710ft 209kts
01-Mar-18 10:55 45.647245 -121.193495 216 25709ft 209kts
01-Mar-18 10:56 45.615027 -121.237867 216 25708ft 208kts
01-Mar-18 10:57 45.582042 -121.283325 216 25698ft 209kts
01-Mar-18 10:58 45.549697 -121.327765 216 25698ft 208kts
01-Mar-18 10:59 45.517219 -121.372319 216 25697ft 208kts
01-Mar-18 11:00 45.483150 -121.418995 216 25696ft 208kts
01-Mar-18 11:01 45.449760 -121.464675 216 25695ft 208kts
01-Mar-18 11:02 45.414501 -121.512833 216 25695ft 208kts
01-Mar-18 11:03 45.384140 -121.554241 216 25694ft 208kts
01-Mar-18 11:04 45.353476 -121.595997 216 25693ft 207kts
01-Mar-18 11:05 45.320698 -121.640555 216 25693ft 207kts
01-Mar-18 11:06 45.288368 -121.684847 215 25695ft 207kts
01-Mar-18 11:07 45.255367 -121.729895 215 25694ft 207kts
01-Mar-18 11:08 45.222406 -121.774489 216 25694ft 208kts
01-Mar-18 11:09 45.189606 -121.818883 216 25693ft 209kts
01-Mar-18 11:10 45.156600 -121.863396 216 25686ft 209kts
01-Mar-18 11:11 45.123004 -121.908611 216 25682ft 210kts
01-Mar-18 11:12 45.089367 -121.953805 216 25681ft 209kts
01-Mar-18 11:13 45.055943 -121.998625 216 25681ft 209kts
01-Mar-18 11:14 45.021995 -122.044049 216 25671ft 209kts
01-Mar-18 11:15 44.987887 -122.089629 216 25670ft 209kts
01-Mar-18 11:16 44.954190 -122.134573 216 25669ft 209kts
01-Mar-18 11:17 44.920584 -122.179323 216 25669ft 209kts
01-Mar-18 11:18 44.888609 -122.221836 216 25683ft 209kts
01-Mar-18 11:19 44.855334 -122.265905 216 25306ft 216kts
01-Mar-18 11:20 44.821004 -122.311331 217 24440ft 230kts
01-Mar-18 11:21 44.786440 -122.357105 217 23669ft 232kts
01-Mar-18 11:22 44.751564 -122.403180 217 23000ft 230kts
01-Mar-18 11:23 44.717456 -122.448088 218 22434ft 225kts
01-Mar-18 11:24 44.684586 -122.491431 218 21885ft 223kts
01-Mar-18 11:25 44.652091 -122.534171 218 21387ft 221kts
01-Mar-18 11:26 44.618297 -122.578507 218 20910ft 220kts
01-Mar-18 11:27 44.585068 -122.622005 218 20481ft 218kts
01-Mar-18 11:28 44.551733 -122.665661 218 19883ft 216kts
01-Mar-18 11:29 44.519201 -122.708593 218 19224ft 213kts
01-Mar-18 11:30 44.486049 -122.751926 218 18605ft 211kts
01-Mar-18 11:31 44.453578 -122.794153 218 17976ft 213kts
01-Mar-18 11:32 44.421050 -122.836467 218 17450ft 212kts
01-Mar-18 11:33 44.387152 -122.880443 219 16839ft 212kts
01-Mar-18 11:34 44.355853 -122.928164 224 16237ft 213kts
01-Mar-18 11:35 44.326508 -122.975089 224 15707ft 213kts
01-Mar-18 11:36 44.298354 -123.020116 225 15241ft 212kts
01-Mar-18 11:37 44.271013 -123.063797 225 14823ft 212kts
01-Mar-18 11:38 44.244413 -123.106257 225 14448ft 212kts
01-Mar-18 11:39 44.218157 -123.148131 225 14168ft 208kts
01-Mar-18 11:40 44.192751 -123.188535 225 13840ft 207kts
01-Mar-18 11:41 44.167942 -123.227935 225 13333ft 207kts
01-Mar-18 11:42 44.141287 -123.270173 225 12820ft 204kts
01-Mar-18 11:43 44.114052 -123.313322 226 12049ft 204kts
01-Mar-18 11:44 44.084961 -123.359440 226 11998ft 221kts
01-Mar-18 11:45 44.055045 -123.406764 226 11995ft 226kts
01-Mar-18 11:46 44.024821 -123.454431 226 11994ft 227kts
01-Mar-18 11:47 43.993023 -123.504440 226 11485ft 225kts
01-Mar-18 11:48 43.960986 -123.554682 226 10590ft 225kts
01-Mar-18 11:49 43.928410 -123.605764 226 9777ft 224kts
01-Mar-18 11:50 43.894089 -123.659496 226 8466ft 250kts
01-Mar-18 11:51 43.857479 -123.717469 225 7331ft 217kts
01-Mar-18 11:52 43.825931 -123.766778 224 6413ft 215kts
01-Mar-18 11:53 43.792766 -123.818412 224 5984ft 216kts
01-Mar-18 11:54 43.761267 -123.866930 224 5983ft 212kts
01-Mar-18 11:55 43.730257 -123.914963 224 5983ft 210kts
01-Mar-18 11:56 43.699634 -123.962407 224 5983ft 210kts
01-Mar-18 11:57 43.674126 -124.001863 224 5983ft 210kts
01-Mar-18 11:58 43.671895 -124.064174 279 5986ft 232kts
01-Mar-18 11:59 43.681510 -124.132863 268 5982ft 228kts
01-Mar-18 12:00 43.680877 -124.211962 256 5602ft 226kts
01-Mar-18 12:01 43.673494 -124.264429 249 4981ft 223kts
01-Mar-18 12:02 43.656832 -124.326631 239 4192ft 218kts
01-Mar-18 12:03 43.633597 -124.381274 231 3413ft 211kts
01-Mar-18 12:04 43.604180 -124.429262 222 2636ft 206kts
01-Mar-18 12:05 43.571287 -124.467616 213 2606ft 188kts
01-Mar-18 12:06 43.536428 -124.496691 205 2606ft 181kts
01-Mar-18 12:07 43.499368 -124.517858 197 2606ft 174kts
01-Mar-18 12:08 43.458169 -124.531610 189 2610ft 180kts
01-Mar-18 12:09 43.415602 -124.536199 180 2600ft 184kts
01-Mar-18 12:10 43.373696 -124.531533 172 2599ft 186kts
01-Mar-18 12:11 43.333449 -124.518164 164 2599ft 188kts
01-Mar-18 12:12 43.313168 -124.477993 66 2594ft 209kts
01-Mar-18 12:13 43.342548 -124.431964 59 2291ft 213kts
01-Mar-18 12:14 43.364809 -124.382078 64 1504ft 191kts
01-Mar-18 12:15 43.384433 -124.334486 64 1266ft 179kts
01-Mar-18 12:16 43.393125 -124.294296 122 1112ft 124kts
01-Mar-18 12:17 43.380436 -124.307365 309 969ft 146kts
01-Mar-18 12:18 43.411134 -124.308386 54 1069ft 148kts
01-Mar-18 12:19 43.426447 -124.271946 71 652ft 140kts
01-Mar-18 12:20 43.422003 -124.247960 152 125ft 98kts
01-Mar-18 12:21 43.411907 -124.240038 187 21ft 17kts
01-Mar-18 12:22 43.411465 -124.240569 232 21ft 0kts
01-Mar-18 12:23 43.412819 -124.242063 328 21ft 25kts
01-Mar-18 12:24 43.415573 -124.244254 330 21ft 8kts
01-Mar-18 12:25 43.416461 -124.245801 332 21ft 8kts
01-Mar-18 12:26 43.417566 -124.247165 331 21ft 0kts
01-Mar-18 12:27 43.417566 -124.247165 331 21ft 0kts
01-Mar-18 12:28 43.417566 -124.247165 331 21ft 0kts

Navigation Log

Ident Type
Flight plan parsing failed, navigation log unavailable